createdAt,value
2022-10-06T00:01:15.176Z,99224.12
2022-10-06T00:04:09.993Z,99231.43
2022-10-06T00:07:03.563Z,99234.13
2022-10-06T00:09:56.724Z,99236.35
2022-10-06T00:12:53.116Z,99233.40
2022-10-06T00:15:46.234Z,99235.94
2022-10-06T00:18:40.286Z,99235.80
2022-10-06T00:21:34.152Z,99235.34
2022-10-06T00:24:27.514Z,99236.17
2022-10-06T00:27:21.225Z,99236.94
2022-10-06T00:30:19.674Z,99237.70
2022-10-06T00:33:17.939Z,99242.38
2022-10-06T00:36:13.733Z,99242.39
2022-10-06T00:39:07.831Z,99244.14
2022-10-06T00:42:02.022Z,99240.20
2022-10-06T00:45:00.524Z,99240.27
2022-10-06T00:47:58.726Z,99251.12
2022-10-06T00:50:56.604Z,99251.08
2022-10-06T00:53:50.692Z,99244.42
2022-10-06T00:56:44.395Z,99243.77
2022-10-06T00:59:39.747Z,99249.89
2022-10-06T01:12:15.534Z,99245.60
2022-10-06T04:14:10.290Z,99285.95
2022-10-06T04:23:21.257Z,99288.21
2022-10-06T04:45:09.523Z,99296.98
2022-10-06T06:29:18.237Z,99404.34
2022-10-06T07:11:23.468Z,99454.75
2022-10-06T07:15:44.667Z,99459.55
2022-10-06T07:21:40.946Z,99468.66
2022-10-06T07:25:58.159Z,99468.85
2022-10-06T07:30:15.522Z,99473.17
2022-10-06T07:34:02.964Z,99472.80
2022-10-06T07:37:57.150Z,99478.66
2022-10-06T07:41:52.244Z,99481.11
2022-10-06T07:45:41.150Z,99484.01
2022-10-06T07:49:38.139Z,99490.44
2022-10-06T07:57:44.299Z,99498.33
2022-10-06T08:05:55.159Z,99501.95
2022-10-06T08:09:51.971Z,99500.63
2022-10-06T08:13:57.896Z,99514.27
2022-10-06T08:17:54.816Z,99516.25
2022-10-06T08:21:52.309Z,99515.56
2022-10-06T08:26:05.114Z,99527.11
2022-10-06T08:29:59.071Z,99526.31
2022-10-06T08:34:02.002Z,99542.24
2022-10-06T08:42:17.307Z,99544.16
2022-10-06T08:46:31.870Z,99542.48
2022-10-06T08:50:29.249Z,19905.71
2022-10-06T08:54:25.795Z,-1.00
2022-10-06T08:58:20.268Z,-1.00
2022-10-06T09:02:17.058Z,-1.00
2022-10-06T09:06:08.507Z,-1.00
2022-10-06T09:10:04.936Z,-1.00
2022-10-06T09:18:14.967Z,-1.00
2022-10-06T09:22:11.739Z,-1.00
2022-10-06T09:26:09.630Z,-1.00
2022-10-06T09:37:01.319Z,99562.81
2022-10-06T09:40:49.389Z,99566.30
2022-10-06T09:44:40.452Z,99564.05
2022-10-06T09:48:32.482Z,99565.39
2022-10-06T09:52:38.701Z,99573.09
2022-10-06T09:56:32.296Z,99571.58
2022-10-06T10:00:16.464Z,99576.95
2022-10-06T10:04:19.897Z,99585.17
2022-10-06T10:08:32.468Z,99581.09
2022-10-06T10:12:25.411Z,99573.31
2022-10-06T10:16:15.741Z,99574.39
2022-10-06T10:20:07.248Z,99568.73
2022-10-06T10:28:30.596Z,99569.37
2022-10-06T10:32:31.638Z,99569.27
2022-10-06T10:36:25.557Z,99577.09
2022-10-06T10:45:00.798Z,99588.55
2022-10-06T10:49:00.492Z,99587.55
2022-10-06T10:52:49.655Z,99596.73
2022-10-06T10:56:43.548Z,99601.48
2022-10-06T11:00:38.961Z,99601.52
2022-10-06T11:04:25.253Z,99602.99
2022-10-06T11:08:17.415Z,99603.69
2022-10-06T11:12:11.333Z,99603.58
2022-10-06T11:16:08.266Z,99603.88
2022-10-06T11:20:41.218Z,99607.19
2022-10-06T11:24:41.635Z,99608.90
2022-10-06T11:28:40.140Z,99614.52
2022-10-06T11:37:00.894Z,99615.39
2022-10-06T11:40:56.151Z,99620.77
2022-10-06T11:45:06.444Z,99620.59
2022-10-06T11:52:09.166Z,99622.79
2022-10-06T11:56:03.007Z,99625.09
2022-10-06T11:59:54.979Z,99627.41
2022-10-06T12:08:38.365Z,99622.05
2022-10-06T12:13:05.825Z,99623.66
2022-10-06T12:17:12.619Z,99621.35
2022-10-06T12:25:36.297Z,99626.30
2022-10-06T12:29:24.760Z,99632.48
2022-10-06T12:33:25.163Z,99628.33
2022-10-06T12:37:19.075Z,99633.34
2022-10-06T12:41:41.508Z,99640.77
2022-10-06T12:45:45.863Z,99633.48
2022-10-06T12:50:01.870Z,99630.96
2022-10-06T12:58:28.275Z,99632.70
2022-10-06T13:02:17.896Z,99632.34
2022-10-06T13:10:24.363Z,99635.40
2022-10-06T13:14:13.706Z,99637.23
2022-10-06T13:22:51.950Z,99648.73
2022-10-06T13:33:00.380Z,99645.31
2022-10-06T13:50:25.379Z,99657.27
2022-10-06T13:54:40.432Z,99662.69
2022-10-06T14:03:11.612Z,99666.73
2022-10-06T14:20:14.534Z,99680.48
2022-10-06T14:33:40.451Z,99704.23
2022-10-06T14:46:30.294Z,99723.44
2022-10-06T14:52:20.093Z,99730.13
2022-10-06T15:01:26.551Z,99739.31
2022-10-06T15:09:36.688Z,99746.07
2022-10-06T15:23:21.686Z,99753.85
2022-10-06T15:36:46.138Z,99784.28
2022-10-06T15:40:56.234Z,99787.27
2022-10-06T15:49:33.569Z,99800.73
2022-10-06T15:53:30.047Z,99806.80
2022-10-06T15:57:24.149Z,99810.25
2022-10-06T16:14:17.488Z,99825.14
2022-10-06T16:18:24.266Z,99827.71
2022-10-06T16:22:21.226Z,99838.36
2022-10-06T16:26:18.037Z,99839.02
2022-10-06T16:40:04.429Z,99857.65
2022-10-06T16:49:22.492Z,99852.29
2022-10-06T17:04:06.494Z,99868.99
2022-10-06T17:08:46.289Z,99880.36
2022-10-06T17:22:34.037Z,99891.59
2022-10-06T17:31:35.963Z,99900.59
2022-10-06T19:03:07.695Z,99976.73
2022-10-06T19:14:42.843Z,99982.34
2022-10-06T23:31:26.436Z,100063.27
